Cuaca Aktual Bandara Mali

Waktu Pengamatan : 2021-10-26 22:00:00 WITA


NIGHT-TSRA
Guntur dan hujan
Suhu Udara
27 °C
Titik Embun
26 °C

Tekanan Udara 1012 hPa
Jarak Pandang 5.0 km

Angin
Tenang
METAR Terkini : METAR WATM 261400Z 00000KT 5000 TSRA FEW015CB SCT016 BKN090 27/26 Q1012|RMK CB TO E=